sensor_id;sensor_type;location;lat;lon;timestamp;temperature;humidity
11304;DHT22;5707;49.588;12.148;2022-12-29T00:01:44;4.00;99.90
11304;DHT22;5707;49.588;12.148;2022-12-29T00:04:12;4.00;99.90
11304;DHT22;5707;49.588;12.148;2022-12-29T00:06:38;4.00;99.90
11304;DHT22;5707;49.588;12.148;2022-12-29T00:09:04;3.90;99.90
11304;DHT22;5707;49.588;12.148;2022-12-29T00:11:29;3.80;99.90
11304;DHT22;5707;49.588;12.148;2022-12-29T00:13:55;3.80;99.90
11304;DHT22;5707;49.588;12.148;2022-12-29T00:16:44;3.80;99.90
11304;DHT22;5707;49.588;12.148;2022-12-29T00:19:11;3.80;99.90
11304;DHT22;5707;49.588;12.148;2022-12-29T00:21:57;3.80;99.90
11304;DHT22;5707;49.588;12.148;2022-12-29T00:24:43;3.80;99.90
11304;DHT22;5707;49.588;12.148;2022-12-29T00:27:28;3.80;99.90
11304;DHT22;5707;49.588;12.148;2022-12-29T00:30:14;3.80;99.90
11304;DHT22;5707;49.588;12.148;2022-12-29T00:32:59;3.80;99.90
11304;DHT22;5707;49.588;12.148;2022-12-29T00:35:46;3.90;99.90
11304;DHT22;5707;49.588;12.148;2022-12-29T00:38:16;4.00;99.90
11304;DHT22;5707;49.588;12.148;2022-12-29T00:41:00;4.00;99.90
11304;DHT22;5707;49.588;12.148;2022-12-29T00:43:44;4.00;99.90
11304;DHT22;5707;49.588;12.148;2022-12-29T00:46:28;4.10;99.90
11304;DHT22;5707;49.588;12.148;2022-12-29T00:48:54;4.10;99.90
11304;DHT22;5707;49.588;12.148;2022-12-29T00:51:38;4.10;99.90
11304;DHT22;5707;49.588;12.148;2022-12-29T00:54:04;4.00;99.90
11304;DHT22;5707;49.588;12.148;2022-12-29T00:56:29;3.90;99.90
11304;DHT22;5707;49.588;12.148;2022-12-29T00:58:55;3.90;99.90
11304;DHT22;5707;49.588;12.148;2022-12-29T01:01:21;3.80;99.90
11304;DHT22;5707;49.588;12.148;2022-12-29T01:03:46;3.70;99.90
11304;DHT22;5707;49.588;12.148;2022-12-29T01:06:12;3.60;99.90
11304;DHT22;5707;49.588;12.148;2022-12-29T01:08:38;3.60;99.90
11304;DHT22;5707;49.588;12.148;2022-12-29T01:11:09;3.60;99.90
11304;DHT22;5707;49.588;12.148;2022-12-29T01:13:35;3.70;99.90
11304;DHT22;5707;49.588;12.148;2022-12-29T01:16:01;3.60;99.90
11304;DHT22;5707;49.588;12.148;2022-12-29T01:18:27;3.70;99.90
11304;DHT22;5707;49.588;12.148;2022-12-29T01:21:04;3.70;99.90
11304;DHT22;5707;49.588;12.148;2022-12-29T01:23:30;3.80;99.90
11304;DHT22;5707;49.588;12.148;2022-12-29T01:25:56;3.90;99.90
11304;DHT22;5707;49.588;12.148;2022-12-29T01:28:22;4.00;99.90
11304;DHT22;5707;49.588;12.148;2022-12-29T01:30:47;4.10;99.90
11304;DHT22;5707;49.588;12.148;2022-12-29T01:33:13;4.10;99.90
11304;DHT22;5707;49.588;12.148;2022-12-29T01:35:39;4.10;99.90
11304;DHT22;5707;49.588;12.148;2022-12-29T01:38:04;4.10;99.90
11304;DHT22;5707;49.588;12.148;2022-12-29T01:40:30;4.10;99.90
11304;DHT22;5707;49.588;12.148;2022-12-29T01:42:56;4.00;99.90
11304;DHT22;5707;49.588;12.148;2022-12-29T01:45:21;4.00;99.90
11304;DHT22;5707;49.588;12.148;2022-12-29T01:47:57;3.90;99.90
11304;DHT22;5707;49.588;12.148;2022-12-29T01:50:31;3.90;99.90
11304;DHT22;5707;49.588;12.148;2022-12-29T01:53:02;3.90;99.90
11304;DHT22;5707;49.588;12.148;2022-12-29T01:55:30;3.90;99.90
11304;DHT22;5707;49.588;12.148;2022-12-29T01:58:00;3.90;99.90
11304;DHT22;5707;49.588;12.148;2022-12-29T02:00:29;3.90;99.90
11304;DHT22;5707;49.588;12.148;2022-12-29T02:02:54;3.80;99.90
11304;DHT22;5707;49.588;12.148;2022-12-29T02:07:58;3.70;99.90
11304;DHT22;5707;49.588;12.148;2022-12-29T02:10:27;3.60;99.90
11304;DHT22;5707;49.588;12.148;2022-12-29T02:12:53;3.70;99.90
11304;DHT22;5707;49.588;12.148;2022-12-29T02:15:23;3.70;99.90
11304;DHT22;5707;49.588;12.148;2022-12-29T02:18:32;3.80;99.90
11304;DHT22;5707;49.588;12.148;2022-12-29T02:32:18;4.30;99.90
11304;DHT22;5707;49.588;12.148;2022-12-29T02:34:50;4.40;99.90
11304;DHT22;5707;49.588;12.148;2022-12-29T02:37:24;4.40;99.90
11304;DHT22;5707;49.588;12.148;2022-12-29T02:42:44;4.50;99.90
11304;DHT22;5707;49.588;12.148;2022-12-29T02:45:32;4.40;99.90
11304;DHT22;5707;49.588;12.148;2022-12-29T02:51:04;4.40;99.90
11304;DHT22;5707;49.588;12.148;2022-12-29T02:53:34;4.40;99.90
11304;DHT22;5707;49.588;12.148;2022-12-29T02:56:18;4.40;99.90
11304;DHT22;5707;49.588;12.148;2022-12-29T02:58:44;4.50;99.90
11304;DHT22;5707;49.588;12.148;2022-12-29T03:04:12;4.50;99.90
11304;DHT22;5707;49.588;12.148;2022-12-29T03:06:52;4.50;99.90
11304;DHT22;5707;49.588;12.148;2022-12-29T03:09:36;4.60;99.90
11304;DHT22;5707;49.588;12.148;2022-12-29T03:12:32;4.60;99.90
11304;DHT22;5707;49.588;12.148;2022-12-29T03:15:48;4.60;99.90
11304;DHT22;5707;49.588;12.148;2022-12-29T03:18:47;4.60;99.90
11304;DHT22;5707;49.588;12.148;2022-12-29T03:21:34;4.60;99.90
11304;DHT22;5707;49.588;12.148;2022-12-29T03:24:22;4.60;99.90
11304;DHT22;5707;49.588;12.148;2022-12-29T03:26:50;4.60;99.90
11304;DHT22;5707;49.588;12.148;2022-12-29T03:29:19;4.60;99.90
11304;DHT22;5707;49.588;12.148;2022-12-29T03:31:47;4.70;99.90
11304;DHT22;5707;49.588;12.148;2022-12-29T03:34:15;4.70;99.90
11304;DHT22;5707;49.588;12.148;2022-12-29T03:36:52;4.60;99.90
11304;DHT22;5707;49.588;12.148;2022-12-29T03:39:20;4.60;99.90
11304;DHT22;5707;49.588;12.148;2022-12-29T03:41:50;4.60;99.90
11304;DHT22;5707;49.588;12.148;2022-12-29T03:44:20;4.60;99.90
11304;DHT22;5707;49.588;12.148;2022-12-29T03:46:46;4.60;99.90
11304;DHT22;5707;49.588;12.148;2022-12-29T03:49:11;4.60;99.90
11304;DHT22;5707;49.588;12.148;2022-12-29T03:51:37;4.70;99.90
11304;DHT22;5707;49.588;12.148;2022-12-29T03:54:03;4.60;99.90
11304;DHT22;5707;49.588;12.148;2022-12-29T03:56:28;4.70;99.90
11304;DHT22;5707;49.588;12.148;2022-12-29T03:58:54;4.70;99.90
11304;DHT22;5707;49.588;12.148;2022-12-29T04:01:19;4.70;99.90
11304;DHT22;5707;49.588;12.148;2022-12-29T04:03:45;4.80;99.90
11304;DHT22;5707;49.588;12.148;2022-12-29T04:06:10;4.80;99.90
11304;DHT22;5707;49.588;12.148;2022-12-29T04:08:36;4.80;99.90
11304;DHT22;5707;49.588;12.148;2022-12-29T04:11:02;4.90;99.90
11304;DHT22;5707;49.588;12.148;2022-12-29T04:13:27;4.80;99.90
11304;DHT22;5707;49.588;12.148;2022-12-29T04:15:53;4.80;99.90
11304;DHT22;5707;49.588;12.148;2022-12-29T04:18:18;4.80;99.90
11304;DHT22;5707;49.588;12.148;2022-12-29T04:20:44;4.90;99.90
11304;DHT22;5707;49.588;12.148;2022-12-29T04:23:26;4.90;99.90
11304;DHT22;5707;49.588;12.148;2022-12-29T04:25:52;4.90;99.90
11304;DHT22;5707;49.588;12.148;2022-12-29T04:28:17;4.90;99.90
11304;DHT22;5707;49.588;12.148;2022-12-29T04:30:44;4.90;99.90
11304;DHT22;5707;49.588;12.148;2022-12-29T04:33:10;5.00;99.90
11304;DHT22;5707;49.588;12.148;2022-12-29T04:35:35;5.00;99.90
11304;DHT22;5707;49.588;12.148;2022-12-29T04:38:01;4.90;99.90
11304;DHT22;5707;49.588;12.148;2022-12-29T04:40:27;4.90;99.90
11304;DHT22;5707;49.588;12.148;2022-12-29T04:42:52;4.90;99.90
11304;DHT22;5707;49.588;12.148;2022-12-29T04:45:18;4.90;99.90
11304;DHT22;5707;49.588;12.148;2022-12-29T04:47:44;4.90;99.90
11304;DHT22;5707;49.588;12.148;2022-12-29T04:50:10;4.90;99.90
11304;DHT22;5707;49.588;12.148;2022-12-29T04:52:36;4.90;99.90
11304;DHT22;5707;49.588;12.148;2022-12-29T04:55:02;4.90;99.90
11304;DHT22;5707;49.588;12.148;2022-12-29T04:57:27;4.90;99.90
11304;DHT22;5707;49.588;12.148;2022-12-29T04:59:53;4.90;99.90
11304;DHT22;5707;49.588;12.148;2022-12-29T05:02:19;4.80;99.90
11304;DHT22;5707;49.588;12.148;2022-12-29T05:04:45;4.80;99.90
11304;DHT22;5707;49.588;12.148;2022-12-29T05:07:11;4.80;99.90
11304;DHT22;5707;49.588;12.148;2022-12-29T05:09:36;4.80;99.90
11304;DHT22;5707;49.588;12.148;2022-12-29T05:12:02;4.80;99.90
11304;DHT22;5707;49.588;12.148;2022-12-29T05:14:28;4.80;99.90
11304;DHT22;5707;49.588;12.148;2022-12-29T05:16:54;4.80;99.90
11304;DHT22;5707;49.588;12.148;2022-12-29T05:19:19;4.80;99.90
11304;DHT22;5707;49.588;12.148;2022-12-29T05:21:45;4.80;99.90
11304;DHT22;5707;49.588;12.148;2022-12-29T05:24:11;4.80;99.90
11304;DHT22;5707;49.588;12.148;2022-12-29T05:26:36;4.70;99.90
11304;DHT22;5707;49.588;12.148;2022-12-29T05:29:02;4.70;99.90
11304;DHT22;5707;49.588;12.148;2022-12-29T05:31:28;4.70;99.90
11304;DHT22;5707;49.588;12.148;2022-12-29T05:33:54;4.70;99.90
11304;DHT22;5707;49.588;12.148;2022-12-29T05:36:19;4.70;99.90
11304;DHT22;5707;49.588;12.148;2022-12-29T05:38:45;4.70;99.90
11304;DHT22;5707;49.588;12.148;2022-12-29T05:41:10;4.80;99.90
11304;DHT22;5707;49.588;12.148;2022-12-29T05:43:36;4.80;99.90
11304;DHT22;5707;49.588;12.148;2022-12-29T05:46:03;4.80;99.90
11304;DHT22;5707;49.588;12.148;2022-12-29T05:48:28;4.70;99.90
11304;DHT22;5707;49.588;12.148;2022-12-29T05:50:54;4.80;99.90
11304;DHT22;5707;49.588;12.148;2022-12-29T05:53:19;4.80;99.90
11304;DHT22;5707;49.588;12.148;2022-12-29T05:55:48;4.80;99.90
11304;DHT22;5707;49.588;12.148;2022-12-29T05:58:16;4.80;99.90
11304;DHT22;5707;49.588;12.148;2022-12-29T06:00:41;4.80;99.90
11304;DHT22;5707;49.588;12.148;2022-12-29T06:03:07;4.80;99.90
11304;DHT22;5707;49.588;12.148;2022-12-29T06:05:33;4.90;99.90
11304;DHT22;5707;49.588;12.148;2022-12-29T06:07:58;4.90;99.90
11304;DHT22;5707;49.588;12.148;2022-12-29T06:10:24;4.90;99.90
11304;DHT22;5707;49.588;12.148;2022-12-29T06:12:50;4.90;99.90
11304;DHT22;5707;49.588;12.148;2022-12-29T06:15:16;4.90;99.90
11304;DHT22;5707;49.588;12.148;2022-12-29T06:17:42;4.90;99.90
11304;DHT22;5707;49.588;12.148;2022-12-29T06:20:08;4.90;99.90
11304;DHT22;5707;49.588;12.148;2022-12-29T06:22:34;4.90;99.90
11304;DHT22;5707;49.588;12.148;2022-12-29T06:24:59;4.90;99.90
11304;DHT22;5707;49.588;12.148;2022-12-29T06:27:27;4.90;99.90
11304;DHT22;5707;49.588;12.148;2022-12-29T06:29:53;4.80;99.90
11304;DHT22;5707;49.588;12.148;2022-12-29T06:32:18;4.50;99.90
11304;DHT22;5707;49.588;12.148;2022-12-29T06:34:44;4.30;99.90
11304;DHT22;5707;49.588;12.148;2022-12-29T06:37:10;4.10;99.90
11304;DHT22;5707;49.588;12.148;2022-12-29T06:39:36;4.00;99.90
11304;DHT22;5707;49.588;12.148;2022-12-29T06:42:01;3.90;99.90
11304;DHT22;5707;49.588;12.148;2022-12-29T06:44:27;3.90;99.90
11304;DHT22;5707;49.588;12.148;2022-12-29T06:46:53;3.80;99.90
11304;DHT22;5707;49.588;12.148;2022-12-29T06:49:18;3.70;99.90
11304;DHT22;5707;49.588;12.148;2022-12-29T06:51:44;3.60;99.90
11304;DHT22;5707;49.588;12.148;2022-12-29T06:54:09;3.50;99.90
11304;DHT22;5707;49.588;12.148;2022-12-29T06:56:35;3.40;99.90
11304;DHT22;5707;49.588;12.148;2022-12-29T06:59:00;3.40;99.90
11304;DHT22;5707;49.588;12.148;2022-12-29T07:01:26;3.40;99.90
11304;DHT22;5707;49.588;12.148;2022-12-29T07:03:52;3.40;99.90
11304;DHT22;5707;49.588;12.148;2022-12-29T07:06:18;3.30;99.90
11304;DHT22;5707;49.588;12.148;2022-12-29T07:08:43;3.40;99.90
11304;DHT22;5707;49.588;12.148;2022-12-29T07:11:09;3.40;99.90
11304;DHT22;5707;49.588;12.148;2022-12-29T07:13:35;3.40;99.90
11304;DHT22;5707;49.588;12.148;2022-12-29T07:16:05;3.40;99.90
11304;DHT22;5707;49.588;12.148;2022-12-29T07:18:31;3.50;99.90
11304;DHT22;5707;49.588;12.148;2022-12-29T07:20:57;3.50;99.90
11304;DHT22;5707;49.588;12.148;2022-12-29T07:23:22;3.50;99.90
11304;DHT22;5707;49.588;12.148;2022-12-29T07:25:48;3.60;99.90
11304;DHT22;5707;49.588;12.148;2022-12-29T07:28:14;3.60;99.90
11304;DHT22;5707;49.588;12.148;2022-12-29T07:30:39;3.70;99.90
11304;DHT22;5707;49.588;12.148;2022-12-29T07:33:05;3.80;99.90
11304;DHT22;5707;49.588;12.148;2022-12-29T07:35:30;3.80;99.90
11304;DHT22;5707;49.588;12.148;2022-12-29T07:37:56;3.80;99.90
11304;DHT22;5707;49.588;12.148;2022-12-29T07:40:21;3.90;99.90
11304;DHT22;5707;49.588;12.148;2022-12-29T07:42:47;3.90;99.90
11304;DHT22;5707;49.588;12.148;2022-12-29T07:45:13;3.90;99.90
11304;DHT22;5707;49.588;12.148;2022-12-29T07:47:38;4.00;99.90
11304;DHT22;5707;49.588;12.148;2022-12-29T07:50:05;4.10;99.90
11304;DHT22;5707;49.588;12.148;2022-12-29T07:52:30;4.00;99.90
11304;DHT22;5707;49.588;12.148;2022-12-29T07:54:56;4.10;99.90
11304;DHT22;5707;49.588;12.148;2022-12-29T07:57:21;4.10;99.90
11304;DHT22;5707;49.588;12.148;2022-12-29T07:59:47;4.20;99.90
11304;DHT22;5707;49.588;12.148;2022-12-29T08:02:12;4.20;99.90
11304;DHT22;5707;49.588;12.148;2022-12-29T08:04:38;4.20;99.90
11304;DHT22;5707;49.588;12.148;2022-12-29T08:07:04;4.30;99.90
11304;DHT22;5707;49.588;12.148;2022-12-29T08:09:29;4.30;99.90
11304;DHT22;5707;49.588;12.148;2022-12-29T08:11:55;4.40;99.90
11304;DHT22;5707;49.588;12.148;2022-12-29T08:14:20;4.40;99.90
11304;DHT22;5707;49.588;12.148;2022-12-29T08:16:46;4.40;99.90
11304;DHT22;5707;49.588;12.148;2022-12-29T08:19:13;4.50;99.90
11304;DHT22;5707;49.588;12.148;2022-12-29T08:21:39;4.50;99.90
11304;DHT22;5707;49.588;12.148;2022-12-29T08:24:05;4.60;99.90
11304;DHT22;5707;49.588;12.148;2022-12-29T08:26:31;4.70;99.90
11304;DHT22;5707;49.588;12.148;2022-12-29T08:28:56;4.80;99.90
11304;DHT22;5707;49.588;12.148;2022-12-29T08:31:23;4.90;99.90
11304;DHT22;5707;49.588;12.148;2022-12-29T08:33:49;4.80;99.90
11304;DHT22;5707;49.588;12.148;2022-12-29T08:36:14;4.70;99.90
11304;DHT22;5707;49.588;12.148;2022-12-29T08:38:40;4.70;99.90
11304;DHT22;5707;49.588;12.148;2022-12-29T08:41:05;4.60;99.90
11304;DHT22;5707;49.588;12.148;2022-12-29T08:43:31;4.50;99.90
11304;DHT22;5707;49.588;12.148;2022-12-29T08:46:00;4.40;99.90
11304;DHT22;5707;49.588;12.148;2022-12-29T08:48:26;4.40;99.90
11304;DHT22;5707;49.588;12.148;2022-12-29T08:50:51;4.40;99.90
11304;DHT22;5707;49.588;12.148;2022-12-29T08:53:18;4.40;99.90
11304;DHT22;5707;49.588;12.148;2022-12-29T08:55:47;4.50;99.90
11304;DHT22;5707;49.588;12.148;2022-12-29T08:58:19;4.60;99.90
11304;DHT22;5707;49.588;12.148;2022-12-29T09:00:45;4.60;99.90
11304;DHT22;5707;49.588;12.148;2022-12-29T09:03:10;4.70;99.90
11304;DHT22;5707;49.588;12.148;2022-12-29T09:05:36;4.70;99.90
11304;DHT22;5707;49.588;12.148;2022-12-29T09:08:01;4.80;99.90
11304;DHT22;5707;49.588;12.148;2022-12-29T09:10:27;4.80;99.90
11304;DHT22;5707;49.588;12.148;2022-12-29T09:12:53;4.90;99.90
11304;DHT22;5707;49.588;12.148;2022-12-29T09:15:18;5.00;99.90
11304;DHT22;5707;49.588;12.148;2022-12-29T09:17:44;5.10;99.90
11304;DHT22;5707;49.588;12.148;2022-12-29T09:20:14;5.20;99.90
11304;DHT22;5707;49.588;12.148;2022-12-29T09:22:40;5.20;99.90
11304;DHT22;5707;49.588;12.148;2022-12-29T09:25:06;5.30;99.90
11304;DHT22;5707;49.588;12.148;2022-12-29T09:27:32;5.30;99.90
11304;DHT22;5707;49.588;12.148;2022-12-29T09:29:57;5.40;99.90
11304;DHT22;5707;49.588;12.148;2022-12-29T09:32:23;5.40;99.90
11304;DHT22;5707;49.588;12.148;2022-12-29T09:34:49;5.50;99.90
11304;DHT22;5707;49.588;12.148;2022-12-29T09:37:14;5.50;99.90
11304;DHT22;5707;49.588;12.148;2022-12-29T09:39:40;5.70;99.90
11304;DHT22;5707;49.588;12.148;2022-12-29T09:45:32;6.10;99.90
11304;DHT22;5707;49.588;12.148;2022-12-29T09:47:58;6.50;99.90
11304;DHT22;5707;49.588;12.148;2022-12-29T09:50:33;6.80;99.90
11304;DHT22;5707;49.588;12.148;2022-12-29T09:53:11;7.00;99.90
11304;DHT22;5707;49.588;12.148;2022-12-29T09:55:44;7.20;99.90
11304;DHT22;5707;49.588;12.148;2022-12-29T10:03:58;7.50;99.90
11304;DHT22;5707;49.588;12.148;2022-12-29T10:06:45;7.50;99.90
11304;DHT22;5707;49.588;12.148;2022-12-29T10:09:19;7.30;99.90
11304;DHT22;5707;49.588;12.148;2022-12-29T10:15:12;7.20;99.90
11304;DHT22;5707;49.588;12.148;2022-12-29T10:23:45;7.00;99.90
11304;DHT22;5707;49.588;12.148;2022-12-29T10:26:15;7.00;99.90
11304;DHT22;5707;49.588;12.148;2022-12-29T10:29:24;6.90;99.90
11304;DHT22;5707;49.588;12.148;2022-12-29T10:32:00;6.90;99.90
11304;DHT22;5707;49.588;12.148;2022-12-29T10:36:58;7.40;99.90
11304;DHT22;5707;49.588;12.148;2022-12-29T10:39:53;7.80;99.90
11304;DHT22;5707;49.588;12.148;2022-12-29T10:44:47;7.90;99.90
11304;DHT22;5707;49.588;12.148;2022-12-29T10:47:16;7.70;99.90
11304;DHT22;5707;49.588;12.148;2022-12-29T10:49:45;7.50;99.90
11304;DHT22;5707;49.588;12.148;2022-12-29T10:52:13;7.40;99.90
11304;DHT22;5707;49.588;12.148;2022-12-29T10:54:54;7.30;99.90
11304;DHT22;5707;49.588;12.148;2022-12-29T10:57:32;7.30;99.90
11304;DHT22;5707;49.588;12.148;2022-12-29T10:59:59;7.30;99.90
11304;DHT22;5707;49.588;12.148;2022-12-29T11:06:05;7.50;99.90
11304;DHT22;5707;49.588;12.148;2022-12-29T11:08:18;7.60;99.90
11304;DHT22;5707;49.588;12.148;2022-12-29T11:10:46;7.80;99.90
11304;DHT22;5707;49.588;12.148;2022-12-29T11:13:32;7.90;99.90
11304;DHT22;5707;49.588;12.148;2022-12-29T11:15:58;8.00;99.90
11304;DHT22;5707;49.588;12.148;2022-12-29T11:18:36;8.10;99.90
11304;DHT22;5707;49.588;12.148;2022-12-29T11:21:05;8.00;99.90
11304;DHT22;5707;49.588;12.148;2022-12-29T11:23:33;8.00;99.90
11304;DHT22;5707;49.588;12.148;2022-12-29T11:26:21;8.10;99.90
11304;DHT22;5707;49.588;12.148;2022-12-29T11:29:05;8.20;99.90
11304;DHT22;5707;49.588;12.148;2022-12-29T11:31:45;8.40;99.90
11304;DHT22;5707;49.588;12.148;2022-12-29T11:34:30;8.60;99.90
11304;DHT22;5707;49.588;12.148;2022-12-29T11:37:04;8.50;99.90
11304;DHT22;5707;49.588;12.148;2022-12-29T11:42:01;8.70;99.90
11304;DHT22;5707;49.588;12.148;2022-12-29T11:44:35;8.90;99.90
11304;DHT22;5707;49.588;12.148;2022-12-29T11:47:02;8.80;99.90
11304;DHT22;5707;49.588;12.148;2022-12-29T11:49:28;8.50;99.90
11304;DHT22;5707;49.588;12.148;2022-12-29T11:51:54;8.30;99.90
11304;DHT22;5707;49.588;12.148;2022-12-29T11:54:31;8.30;99.90
11304;DHT22;5707;49.588;12.148;2022-12-29T11:57:09;8.40;99.90
11304;DHT22;5707;49.588;12.148;2022-12-29T11:59:42;8.50;99.90
11304;DHT22;5707;49.588;12.148;2022-12-29T12:02:30;8.60;99.90
11304;DHT22;5707;49.588;12.148;2022-12-29T12:05:10;8.80;99.90
11304;DHT22;5707;49.588;12.148;2022-12-29T12:07:43;9.00;99.90
11304;DHT22;5707;49.588;12.148;2022-12-29T12:10:50;9.30;99.90
11304;DHT22;5707;49.588;12.148;2022-12-29T12:13:34;9.40;99.90
11304;DHT22;5707;49.588;12.148;2022-12-29T12:16:07;9.50;99.90
11304;DHT22;5707;49.588;12.148;2022-12-29T12:18:53;9.40;99.90
11304;DHT22;5707;49.588;12.148;2022-12-29T12:21:42;9.30;99.90
11304;DHT22;5707;49.588;12.148;2022-12-29T12:27:09;9.20;99.90
11304;DHT22;5707;49.588;12.148;2022-12-29T12:29:50;9.20;99.90
11304;DHT22;5707;49.588;12.148;2022-12-29T12:32:32;9.30;99.90
11304;DHT22;5707;49.588;12.148;2022-12-29T12:35:03;9.20;99.90
11304;DHT22;5707;49.588;12.148;2022-12-29T12:40:38;9.30;99.90
11304;DHT22;5707;49.588;12.148;2022-12-29T12:43:12;9.20;99.90
11304;DHT22;5707;49.588;12.148;2022-12-29T12:45:48;9.10;99.90
11304;DHT22;5707;49.588;12.148;2022-12-29T12:50:59;8.90;99.90
11304;DHT22;5707;49.588;12.148;2022-12-29T12:53:34;8.90;99.90
11304;DHT22;5707;49.588;12.148;2022-12-29T12:58:59;8.90;99.90
11304;DHT22;5707;49.588;12.148;2022-12-29T13:04:31;8.80;99.90
11304;DHT22;5707;49.588;12.148;2022-12-29T13:12:52;8.80;99.90
11304;DHT22;5707;49.588;12.148;2022-12-29T13:18:37;9.10;99.90
11304;DHT22;5707;49.588;12.148;2022-12-29T13:24:29;9.10;99.90
11304;DHT22;5707;49.588;12.148;2022-12-29T13:27:08;9.10;99.90
11304;DHT22;5707;49.588;12.148;2022-12-29T13:32:49;9.00;99.90
11304;DHT22;5707;49.588;12.148;2022-12-29T13:35:31;9.10;99.90
11304;DHT22;5707;49.588;12.148;2022-12-29T13:38:26;9.20;99.90
11304;DHT22;5707;49.588;12.148;2022-12-29T13:41:02;9.20;99.90
11304;DHT22;5707;49.588;12.148;2022-12-29T13:43:32;9.20;99.90
11304;DHT22;5707;49.588;12.148;2022-12-29T13:49:02;9.20;99.90
11304;DHT22;5707;49.588;12.148;2022-12-29T13:51:31;9.10;99.90
11304;DHT22;5707;49.588;12.148;2022-12-29T13:56:31;9.00;99.90
11304;DHT22;5707;49.588;12.148;2022-12-29T13:59:14;8.90;99.90
11304;DHT22;5707;49.588;12.148;2022-12-29T14:01:55;8.90;99.90
11304;DHT22;5707;49.588;12.148;2022-12-29T14:04:32;8.80;99.90
11304;DHT22;5707;49.588;12.148;2022-12-29T14:07:05;8.90;99.90
11304;DHT22;5707;49.588;12.148;2022-12-29T14:15:06;9.10;99.90
11304;DHT22;5707;49.588;12.148;2022-12-29T14:17:40;9.10;99.90
11304;DHT22;5707;49.588;12.148;2022-12-29T14:20:20;9.00;99.90
11304;DHT22;5707;49.588;12.148;2022-12-29T14:31:01;9.00;99.90
11304;DHT22;5707;49.588;12.148;2022-12-29T14:33:29;9.10;99.90
11304;DHT22;5707;49.588;12.148;2022-12-29T14:35:56;9.00;99.90
11304;DHT22;5707;49.588;12.148;2022-12-29T14:38:24;8.90;99.90
11304;DHT22;5707;49.588;12.148;2022-12-29T14:40:51;8.80;99.90
11304;DHT22;5707;49.588;12.148;2022-12-29T14:43:24;8.70;99.90
11304;DHT22;5707;49.588;12.148;2022-12-29T14:46:01;8.60;99.90
11304;DHT22;5707;49.588;12.148;2022-12-29T14:48:37;8.50;99.90
11304;DHT22;5707;49.588;12.148;2022-12-29T14:51:28;8.40;99.90
11304;DHT22;5707;49.588;12.148;2022-12-29T14:53:54;8.30;99.90
11304;DHT22;5707;49.588;12.148;2022-12-29T14:56:27;8.20;99.90
11304;DHT22;5707;49.588;12.148;2022-12-29T14:58:57;8.20;99.90
11304;DHT22;5707;49.588;12.148;2022-12-29T15:04:03;8.00;99.90
11304;DHT22;5707;49.588;12.148;2022-12-29T15:06:30;7.90;99.90
11304;DHT22;5707;49.588;12.148;2022-12-29T15:09:10;7.80;99.90
11304;DHT22;5707;49.588;12.148;2022-12-29T15:14:36;7.60;99.90
11304;DHT22;5707;49.588;12.148;2022-12-29T15:17:08;7.60;99.90
11304;DHT22;5707;49.588;12.148;2022-12-29T15:19:35;7.60;99.90
11304;DHT22;5707;49.588;12.148;2022-12-29T15:22:02;7.50;99.90
11304;DHT22;5707;49.588;12.148;2022-12-29T15:24:28;7.30;99.90
11304;DHT22;5707;49.588;12.148;2022-12-29T15:26:54;7.20;99.90
11304;DHT22;5707;49.588;12.148;2022-12-29T15:29:37;7.10;99.90
11304;DHT22;5707;49.588;12.148;2022-12-29T15:32:24;7.10;99.90
11304;DHT22;5707;49.588;12.148;2022-12-29T15:34:53;7.00;99.90
11304;DHT22;5707;49.588;12.148;2022-12-29T15:37:27;7.00;99.90
11304;DHT22;5707;49.588;12.148;2022-12-29T15:39:55;6.90;99.90
11304;DHT22;5707;49.588;12.148;2022-12-29T15:45:44;6.70;99.90
11304;DHT22;5707;49.588;12.148;2022-12-29T15:48:21;6.50;99.90
11304;DHT22;5707;49.588;12.148;2022-12-29T15:50:49;6.40;99.90
11304;DHT22;5707;49.588;12.148;2022-12-29T15:53:26;6.30;99.90
11304;DHT22;5707;49.588;12.148;2022-12-29T15:56:01;6.30;99.90
11304;DHT22;5707;49.588;12.148;2022-12-29T15:58:46;6.30;99.90
11304;DHT22;5707;49.588;12.148;2022-12-29T16:03:52;6.40;99.90
11304;DHT22;5707;49.588;12.148;2022-12-29T16:06:38;6.50;99.90
11304;DHT22;5707;49.588;12.148;2022-12-29T16:09:33;6.50;99.90
11304;DHT22;5707;49.588;12.148;2022-12-29T16:12:03;6.60;99.90
11304;DHT22;5707;49.588;12.148;2022-12-29T16:14:34;6.70;99.90
11304;DHT22;5707;49.588;12.148;2022-12-29T16:17:03;6.80;99.90
11304;DHT22;5707;49.588;12.148;2022-12-29T16:19:33;6.90;99.90
11304;DHT22;5707;49.588;12.148;2022-12-29T16:22:01;6.90;99.90
11304;DHT22;5707;49.588;12.148;2022-12-29T16:24:31;6.90;99.90
11304;DHT22;5707;49.588;12.148;2022-12-29T16:27:09;6.80;99.90
11304;DHT22;5707;49.588;12.148;2022-12-29T16:29:39;6.70;99.90
11304;DHT22;5707;49.588;12.148;2022-12-29T16:32:26;6.60;99.90
11304;DHT22;5707;49.588;12.148;2022-12-29T16:37:36;6.60;99.90
11304;DHT22;5707;49.588;12.148;2022-12-29T16:42:48;6.60;99.90
11304;DHT22;5707;49.588;12.148;2022-12-29T16:50:27;6.60;99.90
11304;DHT22;5707;49.588;12.148;2022-12-29T16:52:53;6.80;99.90
11304;DHT22;5707;49.588;12.148;2022-12-29T16:55:19;6.90;99.90
11304;DHT22;5707;49.588;12.148;2022-12-29T16:57:46;6.90;99.90
11304;DHT22;5707;49.588;12.148;2022-12-29T17:00:20;6.80;99.90
11304;DHT22;5707;49.588;12.148;2022-12-29T17:02:48;6.80;99.90
11304;DHT22;5707;49.588;12.148;2022-12-29T17:05:15;6.60;99.90
11304;DHT22;5707;49.588;12.148;2022-12-29T17:07:42;6.60;99.90
11304;DHT22;5707;49.588;12.148;2022-12-29T17:10:08;6.40;99.90
11304;DHT22;5707;49.588;12.148;2022-12-29T17:12:34;6.30;99.90
11304;DHT22;5707;49.588;12.148;2022-12-29T17:15:28;6.30;99.90
11304;DHT22;5707;49.588;12.148;2022-12-29T17:17:59;6.40;99.90
11304;DHT22;5707;49.588;12.148;2022-12-29T17:20:28;6.60;99.90
11304;DHT22;5707;49.588;12.148;2022-12-29T17:22:54;6.70;99.90
11304;DHT22;5707;49.588;12.148;2022-12-29T17:25:23;6.80;99.90
11304;DHT22;5707;49.588;12.148;2022-12-29T17:30:42;7.00;99.90
11304;DHT22;5707;49.588;12.148;2022-12-29T17:33:12;7.00;99.90
11304;DHT22;5707;49.588;12.148;2022-12-29T17:35:39;7.00;99.90
11304;DHT22;5707;49.588;12.148;2022-12-29T17:38:31;6.80;99.90
11304;DHT22;5707;49.588;12.148;2022-12-29T17:40:57;6.80;99.90
11304;DHT22;5707;49.588;12.148;2022-12-29T17:43:23;6.80;99.90
11304;DHT22;5707;49.588;12.148;2022-12-29T17:45:54;6.90;99.90
11304;DHT22;5707;49.588;12.148;2022-12-29T17:48:20;7.00;99.90
11304;DHT22;5707;49.588;12.148;2022-12-29T17:50:48;7.10;99.90
11304;DHT22;5707;49.588;12.148;2022-12-29T17:53:16;7.20;99.90
11304;DHT22;5707;49.588;12.148;2022-12-29T17:55:44;7.30;99.90
11304;DHT22;5707;49.588;12.148;2022-12-29T17:58:20;7.40;99.90
11304;DHT22;5707;49.588;12.148;2022-12-29T18:00:55;7.30;99.90
11304;DHT22;5707;49.588;12.148;2022-12-29T18:03:30;7.30;99.90
11304;DHT22;5707;49.588;12.148;2022-12-29T18:05:56;7.30;99.90
11304;DHT22;5707;49.588;12.148;2022-12-29T18:08:22;7.30;99.90
11304;DHT22;5707;49.588;12.148;2022-12-29T18:10:49;7.40;99.90
11304;DHT22;5707;49.588;12.148;2022-12-29T18:13:27;7.40;99.90